Terminal Aerodrome Forecast
Issued by NWS Charleston, WV

Current Version | Previous Version | Text Only | Print | Product List | Glossary Off
Versions: 1 2 3 4 5 6 7 8 9 10 11 12 13 14 15 16 17 18 19 20 21 22 23 24 25 26 27

672
FTUS41 KRLX 300258 AAA
TAFPKB
TAF AMD
KPKB 300258Z 3003/3024 36003KT P6SM VCSH BKN060 BKN080 OVC100
      TEMPO 3004/3006 3SM SHRA OVC016
     FM300600 09005KT P6SM OVC006
     FM301000 09006KT 4SM SHRA OVC009
     FM301500 10006KT 4SM SHRA VCTS OVC035CB
     FM302100 11004KT 6SM -SHRA BKN060=

USA.gov is the U.S. government's official web portal to all federal, state and local government web resources and services.